createdAt,value
2023-12-04T00:01:13.545Z,101333.59
2023-12-04T00:03:40.675Z,101340.34
2023-12-04T00:06:07.498Z,101330.13
2023-12-04T00:08:34.317Z,101324.75
2023-12-04T00:11:00.769Z,101318.22
2023-12-04T00:13:27.902Z,101305.16
2023-12-04T00:15:54.575Z,101313.56
2023-12-04T00:18:21.128Z,101301.38
2023-12-04T00:20:47.741Z,101285.66
2023-12-04T00:23:14.139Z,101293.75
2023-12-04T00:25:40.563Z,101286.19
2023-12-04T00:28:06.991Z,101271.50
2023-12-04T00:30:33.521Z,101262.38
2023-12-04T00:33:00.316Z,101256.38
2023-12-04T00:35:27.077Z,101261.63
2023-12-04T00:37:54.273Z,101252.38
2023-12-04T00:40:20.691Z,101246.34
2023-12-04T00:42:47.226Z,101249.50
2023-12-04T00:45:13.685Z,101240.03
2023-12-04T00:47:40.201Z,101245.91
2023-12-04T00:50:06.989Z,101236.00
2023-12-04T00:52:33.998Z,101218.78
2023-12-04T00:55:01.346Z,101231.75
2023-12-04T00:57:27.853Z,101227.22
2023-12-04T00:59:54.371Z,101216.84
2023-12-04T01:02:20.836Z,101216.09
2023-12-04T01:04:47.266Z,101205.88
2023-12-04T01:07:13.879Z,101207.28
2023-12-04T01:09:40.383Z,101211.81
2023-12-04T01:12:07.090Z,101197.25
2023-12-04T01:14:33.997Z,101197.06
2023-12-04T01:17:00.393Z,101191.91
2023-12-04T01:19:26.860Z,101186.56
2023-12-04T01:21:54.696Z,101191.28
2023-12-04T01:24:21.183Z,101189.16
2023-12-04T01:26:47.649Z,101189.88
2023-12-04T01:29:14.045Z,101176.53
2023-12-04T01:31:40.507Z,101178.66
2023-12-04T01:34:07.004Z,101182.31
2023-12-04T01:36:33.509Z,101177.13
2023-12-04T01:38:59.980Z,101165.78
2023-12-04T01:41:26.520Z,101171.19
2023-12-04T01:43:53.141Z,101166.78
2023-12-04T01:46:19.600Z,101164.03
2023-12-04T01:48:48.032Z,101169.38
2023-12-04T01:51:15.469Z,101165.59
2023-12-04T01:53:43.054Z,101156.69
2023-12-04T01:56:10.121Z,101157.41
2023-12-04T01:58:37.691Z,101149.13
2023-12-04T02:01:05.699Z,101148.31
2023-12-04T02:03:32.492Z,101152.91
2023-12-04T02:06:01.670Z,101157.50
2023-12-04T02:08:28.152Z,101145.66
2023-12-04T02:10:54.771Z,101139.69
2023-12-04T02:13:21.753Z,101147.03
2023-12-04T02:15:54.203Z,101144.09
2023-12-04T02:18:21.735Z,101143.09
2023-12-04T02:20:48.213Z,101148.34
2023-12-04T02:23:14.662Z,101150.38
2023-12-04T02:25:41.329Z,101139.53
2023-12-04T02:28:10.239Z,101144.72
2023-12-04T02:30:38.989Z,101133.97
2023-12-04T02:33:07.036Z,101131.59
2023-12-04T02:35:36.068Z,101123.59
2023-12-04T02:38:03.638Z,101120.00
2023-12-04T02:40:30.449Z,101126.81
2023-12-04T02:42:57.130Z,101116.25
2023-12-04T02:45:23.911Z,101110.19
2023-12-04T02:47:50.418Z,101112.28
2023-12-04T02:50:17.062Z,101107.69
2023-12-04T02:52:43.518Z,101100.78
2023-12-04T02:55:10.035Z,101101.16
2023-12-04T02:57:36.651Z,101092.88
2023-12-04T03:00:05.668Z,101097.56
2023-12-04T03:02:32.118Z,101089.00
2023-12-04T03:04:58.888Z,101088.84
2023-12-04T03:07:25.768Z,101087.09
2023-12-04T03:09:52.378Z,101079.88
2023-12-04T03:12:19.034Z,101083.38
2023-12-04T03:14:45.753Z,101079.16
2023-12-04T03:17:12.217Z,101079.34
2023-12-04T03:19:38.745Z,101075.88
2023-12-04T03:22:05.416Z,101074.63
2023-12-04T03:24:31.906Z,101072.16
2023-12-04T03:26:58.530Z,101062.72
2023-12-04T03:29:25.004Z,101063.53
2023-12-04T03:31:52.481Z,101066.53
2023-12-04T03:34:19.058Z,101066.63
2023-12-04T03:36:45.531Z,101059.94
2023-12-04T03:39:12.166Z,101060.81
2023-12-04T03:41:38.601Z,101046.00
2023-12-04T03:44:05.060Z,101050.44
2023-12-04T03:46:31.515Z,101033.44
2023-12-04T03:48:58.085Z,101032.84
2023-12-04T03:51:24.777Z,101021.81
2023-12-04T03:53:51.394Z,101016.03
2023-12-04T03:56:18.013Z,101009.69
2023-12-04T03:58:44.431Z,101003.78
2023-12-04T04:01:10.967Z,101003.72
2023-12-04T04:03:37.590Z,101003.78
2023-12-04T04:06:04.375Z,101000.34
2023-12-04T04:08:30.818Z,100999.34
2023-12-04T04:10:57.233Z,101000.97
2023-12-04T04:13:23.856Z,100999.09
2023-12-04T04:15:50.338Z,100991.09
2023-12-04T04:18:16.932Z,100996.03
2023-12-04T04:20:43.391Z,100999.03
2023-12-04T04:23:09.862Z,100986.13
2023-12-04T04:25:36.275Z,100988.97
2023-12-04T04:28:02.776Z,100995.38
2023-12-04T04:30:29.351Z,100994.56
2023-12-04T04:32:56.137Z,100981.78
2023-12-04T04:35:22.814Z,100986.19
2023-12-04T04:37:51.821Z,100965.88
2023-12-04T04:40:18.819Z,100980.22
2023-12-04T04:42:45.428Z,100981.91
2023-12-04T04:45:11.892Z,100964.00
2023-12-04T04:47:38.447Z,100968.06
2023-12-04T04:50:05.224Z,100961.81
2023-12-04T04:52:32.113Z,100960.72
2023-12-04T04:54:59.567Z,100960.06
2023-12-04T04:57:26.272Z,100960.00
2023-12-04T04:59:52.913Z,100953.34
2023-12-04T05:02:19.336Z,100946.78
2023-12-04T05:04:45.892Z,100941.59
2023-12-04T05:07:12.449Z,100941.72
2023-12-04T05:09:38.897Z,100942.88
2023-12-04T05:12:05.735Z,100944.44
2023-12-04T05:14:32.183Z,100944.13
2023-12-04T05:16:58.642Z,100930.16
2023-12-04T05:19:25.229Z,100935.13
2023-12-04T05:21:52.052Z,100937.72
2023-12-04T05:24:18.573Z,100930.25
2023-12-04T05:26:45.035Z,100931.22
2023-12-04T05:29:11.441Z,100926.78
2023-12-04T05:31:37.886Z,100922.94
2023-12-04T05:34:04.647Z,100915.56
2023-12-04T05:36:31.175Z,100914.25
2023-12-04T05:39:00.794Z,100914.94
2023-12-04T05:41:29.237Z,100902.63
2023-12-04T05:43:55.719Z,100908.38
2023-12-04T05:46:22.358Z,100900.97
2023-12-04T05:48:49.403Z,100909.50
2023-12-04T05:51:16.463Z,100905.47
2023-12-04T05:53:42.928Z,100898.47
2023-12-04T05:56:09.962Z,100897.00
2023-12-04T05:58:36.404Z,100895.44
2023-12-04T06:01:03.706Z,100891.91
2023-12-04T06:03:30.222Z,100891.47
2023-12-04T06:05:58.426Z,100894.06
2023-12-04T06:08:26.425Z,100891.75
2023-12-04T06:10:53.050Z,100891.91
2023-12-04T06:13:19.880Z,100885.81
2023-12-04T06:15:46.409Z,100880.50
2023-12-04T06:18:12.997Z,100881.09
2023-12-04T06:20:39.509Z,100885.38
2023-12-04T06:23:06.165Z,100882.31
2023-12-04T06:25:32.866Z,100873.47
2023-12-04T06:27:59.652Z,100874.84
2023-12-04T06:30:26.624Z,100869.13
2023-12-04T06:32:53.644Z,100874.22
2023-12-04T06:35:21.023Z,100866.16
2023-12-04T06:37:49.544Z,100863.25
2023-12-04T06:40:16.440Z,100862.63
2023-12-04T06:42:43.196Z,100865.69
2023-12-04T06:45:10.230Z,100871.06
2023-12-04T06:47:38.030Z,100863.44
2023-12-04T06:50:04.800Z,100863.06
2023-12-04T06:52:31.222Z,100863.91
2023-12-04T06:54:57.672Z,100858.81
2023-12-04T06:57:24.285Z,100865.97
2023-12-04T06:59:50.929Z,100861.28
2023-12-04T07:02:17.482Z,100861.09
2023-12-04T07:04:44.031Z,100868.91
2023-12-04T07:07:10.623Z,100866.66
2023-12-04T07:09:37.141Z,100867.94
2023-12-04T07:12:04.043Z,100874.72
2023-12-04T07:14:30.676Z,100874.72
2023-12-04T07:16:57.347Z,100872.69
2023-12-04T07:19:24.035Z,100875.59
2023-12-04T07:21:51.079Z,100867.97
2023-12-04T07:24:17.652Z,100873.31
2023-12-04T07:26:44.243Z,100871.44
2023-12-04T07:29:10.757Z,100876.16
2023-12-04T07:31:37.170Z,100868.34
2023-12-04T07:34:04.062Z,100869.97
2023-12-04T07:36:30.703Z,100870.44
2023-12-04T07:38:57.090Z,100868.38
2023-12-04T07:41:23.612Z,100870.19
2023-12-04T07:43:50.575Z,100858.72
2023-12-04T07:46:17.450Z,100867.63
2023-12-04T07:48:45.230Z,100860.03
2023-12-04T07:51:11.973Z,100851.84
2023-12-04T07:53:38.471Z,100858.81
2023-12-04T07:56:05.652Z,100848.75
2023-12-04T07:58:32.791Z,100853.09
2023-12-04T08:01:00.373Z,100850.81
2023-12-04T08:03:27.322Z,100852.28
2023-12-04T08:05:54.842Z,100845.91
2023-12-04T08:08:22.257Z,100853.94
2023-12-04T08:10:48.951Z,100855.22
2023-12-04T08:13:15.847Z,100848.22
2023-12-04T08:15:42.401Z,100854.19
2023-12-04T08:18:08.928Z,100855.00
2023-12-04T08:20:40.203Z,100843.88
2023-12-04T08:23:08.005Z,100845.13
2023-12-04T08:25:34.516Z,100841.00
2023-12-04T08:28:04.501Z,100831.34
2023-12-04T08:30:31.052Z,100834.03
2023-12-04T08:32:57.559Z,100837.94
2023-12-04T08:35:24.236Z,100835.84
2023-12-04T08:37:50.901Z,100835.66
2023-12-04T08:40:18.152Z,100834.84
2023-12-04T08:42:46.118Z,100835.88
2023-12-04T08:45:12.627Z,100834.25
2023-12-04T08:47:39.140Z,100826.84
2023-12-04T08:50:06.426Z,100834.47
2023-12-04T08:52:34.033Z,100828.06
2023-12-04T08:55:01.702Z,100831.38
2023-12-04T08:57:28.615Z,100827.88
2023-12-04T08:59:55.141Z,100823.38
2023-12-04T09:02:22.134Z,100812.22
2023-12-04T09:04:49.046Z,100814.09
2023-12-04T09:09:47.493Z,100805.66
2023-12-04T09:12:14.349Z,100806.28
2023-12-04T09:14:40.878Z,100803.59
2023-12-04T09:17:07.446Z,100810.81
2023-12-04T09:19:34.076Z,100807.94
2023-12-04T09:22:08.478Z,100806.47
2023-12-04T09:24:39.555Z,100803.81
2023-12-04T09:27:07.974Z,100808.75
2023-12-04T09:29:35.168Z,100810.19
2023-12-04T09:32:01.775Z,100806.06
2023-12-04T09:34:28.535Z,100810.41
2023-12-04T09:36:59.764Z,100803.59
2023-12-04T09:39:27.894Z,100807.72
2023-12-04T09:41:56.528Z,100807.72
2023-12-04T09:44:25.195Z,100805.66
2023-12-04T09:46:53.006Z,100801.97
2023-12-04T09:49:20.669Z,100804.44
2023-12-04T09:51:47.738Z,100788.38
2023-12-04T09:54:17.626Z,100787.94
2023-12-04T09:56:44.487Z,100785.47
2023-12-04T09:59:14.169Z,100774.34
2023-12-04T10:01:41.539Z,100778.31
2023-12-04T10:04:08.980Z,100771.09
2023-12-04T10:06:38.140Z,100758.94
2023-12-04T10:09:04.611Z,100754.22
2023-12-04T10:11:31.734Z,100757.47
2023-12-04T10:14:00.149Z,100752.53
2023-12-04T10:16:37.564Z,100750.06
2023-12-04T10:19:18.971Z,100746.78
2023-12-04T10:21:47.555Z,100740.63
2023-12-04T10:24:27.464Z,100741.22
2023-12-04T10:26:54.048Z,100733.81
2023-12-04T10:29:20.758Z,100731.97
2023-12-04T10:31:49.138Z,100738.56
2023-12-04T10:34:15.714Z,100729.53
2023-12-04T10:36:42.601Z,100730.31
2023-12-04T10:39:09.633Z,100721.47
2023-12-04T10:41:36.133Z,100727.63
2023-12-04T10:44:10.034Z,100722.50
2023-12-04T10:46:38.461Z,100722.31
2023-12-04T10:49:06.756Z,100721.03
2023-12-04T10:51:35.386Z,100715.50
2023-12-04T10:54:02.210Z,100712.84
2023-12-04T10:56:39.155Z,100718.00
2023-12-04T10:59:11.513Z,100709.97
2023-12-04T11:01:39.758Z,100701.56
2023-12-04T11:04:11.220Z,100697.25
2023-12-04T11:06:41.407Z,100695.22
2023-12-04T11:09:09.224Z,100693.78
2023-12-04T11:11:41.882Z,100692.97
2023-12-04T11:14:11.625Z,100687.63
2023-12-04T11:16:58.305Z,100677.53
2023-12-04T11:19:29.194Z,100681.03
2023-12-04T11:21:59.631Z,100680.00
2023-12-04T11:24:26.379Z,100677.72
2023-12-04T11:26:54.588Z,100675.91
2023-12-04T11:29:22.687Z,100666.63
2023-12-04T11:31:49.312Z,100664.16
2023-12-04T11:34:15.875Z,100662.09
2023-12-04T11:36:42.536Z,100655.72
2023-12-04T11:39:12.763Z,100659.63
2023-12-04T11:41:41.620Z,100655.72
2023-12-04T11:44:16.532Z,100649.78
2023-12-04T11:47:07.253Z,100648.91
2023-12-04T11:49:34.415Z,100644.81
2023-12-04T11:52:05.450Z,100639.88
2023-12-04T11:54:59.138Z,100636.41
2023-12-04T11:57:27.182Z,100629.81
2023-12-04T12:00:09.538Z,100623.44
2023-12-04T12:03:14.517Z,100622.00
2023-12-04T12:05:29.341Z,100614.16
2023-12-04T12:07:56.387Z,100615.19
2023-12-04T12:10:23.154Z,100606.34
2023-12-04T12:12:49.872Z,100603.06
2023-12-04T12:15:16.481Z,100602.88
2023-12-04T12:17:42.944Z,100604.13
2023-12-04T12:20:12.558Z,100597.72
2023-12-04T12:22:42.433Z,100598.38
2023-12-04T12:25:09.765Z,100584.16
2023-12-04T12:27:36.236Z,100591.78
2023-12-04T12:30:04.570Z,100591.97
2023-12-04T12:32:35.626Z,100590.56
2023-12-04T12:35:02.411Z,100578.00
2023-12-04T12:37:29.620Z,100587.66
2023-12-04T12:39:56.098Z,100583.16
2023-12-04T12:42:27.197Z,100575.13
2023-12-04T12:44:54.686Z,100577.19
2023-12-04T12:47:21.124Z,100556.63
2023-12-04T12:49:48.163Z,100564.66
2023-12-04T12:52:15.222Z,100559.94
2023-12-04T12:54:42.430Z,100555.66
2023-12-04T12:57:10.474Z,100551.72
2023-12-04T12:59:38.257Z,100541.66
2023-12-04T13:02:06.186Z,100542.91
2023-12-04T13:04:35.750Z,100538.78
2023-12-04T13:07:04.334Z,100540.03
2023-12-04T13:09:31.312Z,100539.19
2023-12-04T13:11:57.806Z,100539.38
2023-12-04T13:14:24.449Z,100526.66
2023-12-04T13:16:51.124Z,100535.47
2023-12-04T13:19:18.305Z,100517.19
2023-12-04T13:21:45.586Z,100520.25
2023-12-04T13:24:12.157Z,100527.66
2023-12-04T13:26:38.768Z,100513.28
2023-12-04T13:29:05.282Z,100515.97
2023-12-04T13:31:34.072Z,100515.31
2023-12-04T13:34:00.640Z,100513.28
2023-12-04T13:36:28.498Z,100520.44
2023-12-04T13:38:55.200Z,100510.78
2023-12-04T13:41:40.193Z,100504.63
2023-12-04T13:44:06.692Z,100505.84
2023-12-04T13:46:33.128Z,100497.81
2023-12-04T13:49:00.302Z,100496.56
2023-12-04T13:51:27.883Z,100495.56
2023-12-04T13:54:02.106Z,100487.34
2023-12-04T13:56:50.616Z,100482.19
2023-12-04T13:59:21.112Z,100482.44
2023-12-04T14:01:48.015Z,100488.19
2023-12-04T14:04:14.850Z,100491.47
2023-12-04T14:06:41.560Z,100487.38
2023-12-04T14:09:14.017Z,100485.69
2023-12-04T14:11:41.540Z,100483.25
2023-12-04T14:14:08.483Z,100486.34
2023-12-04T14:16:34.949Z,100485.06
2023-12-04T14:19:02.129Z,100484.28
2023-12-04T14:21:29.256Z,100485.31
2023-12-04T14:23:55.725Z,100479.16
2023-12-04T14:26:22.254Z,100477.53
2023-12-04T14:28:48.789Z,100479.16
2023-12-04T14:31:15.277Z,100475.88
2023-12-04T14:33:43.415Z,100476.28
2023-12-04T14:36:13.028Z,100472.34
2023-12-04T14:38:39.896Z,100475.47
2023-12-04T14:41:07.747Z,100468.25
2023-12-04T14:43:34.925Z,100477.50
2023-12-04T14:46:03.550Z,100476.06
2023-12-04T14:48:30.252Z,100482.22
2023-12-04T14:50:59.055Z,100474.19
2023-12-04T14:53:34.372Z,100477.09
2023-12-04T14:56:34.974Z,100465.16
2023-12-04T14:59:22.600Z,100468.59
2023-12-04T15:02:08.839Z,100455.25
2023-12-04T15:04:47.371Z,100442.31
2023-12-04T15:07:42.290Z,100448.72
2023-12-04T15:10:27.476Z,100451.13
2023-12-04T15:13:06.000Z,100442.28
2023-12-04T15:15:51.613Z,100443.53
2023-12-04T15:18:36.790Z,100435.09
2023-12-04T15:21:04.086Z,100434.50
2023-12-04T15:23:30.962Z,100435.34
2023-12-04T15:25:57.541Z,100426.44
2023-12-04T15:28:24.060Z,100422.97
2023-12-04T15:30:50.643Z,100423.38
2023-12-04T15:33:17.165Z,100418.81
2023-12-04T15:35:43.782Z,100421.53
2023-12-04T15:38:10.225Z,100412.44
2023-12-04T15:40:37.270Z,100411.00
2023-12-04T15:45:55.201Z,100399.34
2023-12-04T15:48:21.767Z,100403.06
2023-12-04T15:50:48.403Z,100408.38
2023-12-04T15:53:14.951Z,100407.34
2023-12-04T15:55:41.396Z,100405.94
2023-12-04T15:58:07.815Z,100407.13
2023-12-04T16:00:35.171Z,100409.59
2023-12-04T16:03:04.107Z,100404.28
2023-12-04T16:05:30.901Z,100398.72
2023-12-04T16:07:58.156Z,100396.38
2023-12-04T16:10:24.686Z,100390.22
2023-12-04T16:12:51.397Z,100396.63
2023-12-04T16:15:18.499Z,100394.75
2023-12-04T16:17:45.208Z,100402.16
2023-12-04T16:20:12.533Z,100393.91
2023-12-04T16:22:42.413Z,100387.16
2023-12-04T16:25:11.184Z,100384.06
2023-12-04T16:27:39.479Z,100386.97
2023-12-04T16:30:07.710Z,100381.22
2023-12-04T16:32:34.609Z,100377.91
2023-12-04T16:35:02.634Z,100375.66
2023-12-04T16:37:29.966Z,100374.06
2023-12-04T16:39:56.672Z,100377.06
2023-12-04T16:42:23.436Z,100380.78
2023-12-04T16:44:50.054Z,100366.78
2023-12-04T16:47:16.657Z,100371.88
2023-12-04T16:49:44.662Z,100369.44
2023-12-04T16:52:15.686Z,100363.69
2023-12-04T16:54:42.839Z,100366.53
2023-12-04T16:57:09.611Z,100353.97
2023-12-04T16:59:36.123Z,100345.97
2023-12-04T17:02:02.595Z,100351.56
2023-12-04T17:04:30.560Z,100350.72
2023-12-04T17:06:57.947Z,100345.53
2023-12-04T17:09:24.908Z,100347.66
2023-12-04T17:11:52.366Z,100343.28
2023-12-04T17:14:19.018Z,100334.03
2023-12-04T17:16:45.561Z,100336.50
2023-12-04T17:19:12.832Z,100328.50
2023-12-04T17:21:39.849Z,100327.63
2023-12-04T17:24:06.586Z,100320.50
2023-12-04T17:26:33.372Z,100314.09
2023-12-04T17:28:59.991Z,100313.00
2023-12-04T17:31:28.498Z,100322.22
2023-12-04T17:33:55.915Z,100312.38
2023-12-04T17:36:22.876Z,100316.88
2023-12-04T17:38:49.465Z,100308.84
2023-12-04T17:41:16.009Z,100309.06
2023-12-04T17:43:42.456Z,100305.63
2023-12-04T17:46:09.419Z,100304.66
2023-12-04T17:48:35.897Z,100313.00
2023-12-04T17:51:04.842Z,100311.00
2023-12-04T17:53:31.282Z,100298.59
2023-12-04T17:55:57.791Z,100302.47
2023-12-04T17:58:24.376Z,100299.22
2023-12-04T18:00:50.937Z,100304.66
2023-12-04T18:03:17.640Z,100303.13
2023-12-04T18:05:44.267Z,100293.19
2023-12-04T18:08:11.377Z,100293.13
2023-12-04T18:10:39.461Z,100295.50
2023-12-04T18:13:05.897Z,100296.47
2023-12-04T18:15:32.523Z,100293.34
2023-12-04T18:17:59.191Z,100293.22
2023-12-04T18:20:25.746Z,100297.75
2023-12-04T18:22:54.140Z,100291.88
2023-12-04T18:25:22.443Z,100286.47
2023-12-04T18:27:49.220Z,100287.63
2023-12-04T18:30:17.323Z,100282.94
2023-12-04T18:32:44.459Z,100276.75
2023-12-04T18:35:11.762Z,100273.56
2023-12-04T18:37:48.696Z,100275.63
2023-12-04T18:40:16.652Z,100279.59
2023-12-04T18:42:43.489Z,100275.69
2023-12-04T18:45:10.537Z,100283.09
2023-12-04T18:47:40.083Z,100266.44
2023-12-04T18:50:07.832Z,100273.38
2023-12-04T18:52:34.998Z,100263.06
2023-12-04T18:55:01.478Z,100268.56
2023-12-04T18:57:27.931Z,100262.50
2023-12-04T18:59:54.583Z,100262.25
2023-12-04T19:02:21.201Z,100250.66
2023-12-04T19:04:47.817Z,100254.41
2023-12-04T19:07:14.462Z,100250.50
2023-12-04T19:09:40.935Z,100246.34
2023-12-04T19:12:07.824Z,100243.63
2023-12-04T19:14:35.039Z,100235.16
2023-12-04T19:17:03.418Z,100234.56
2023-12-04T19:19:30.277Z,100232.13
2023-12-04T19:21:57.335Z,100232.34
2023-12-04T19:24:24.145Z,100222.66
2023-12-04T19:26:50.627Z,100228.88
2023-12-04T19:29:23.949Z,100224.00
2023-12-04T19:31:54.241Z,100217.31
2023-12-04T19:34:21.518Z,100213.16
2023-12-04T19:36:49.731Z,100227.19
2023-12-04T19:39:16.307Z,100222.25
2023-12-04T19:41:42.764Z,100224.09
2023-12-04T19:44:09.977Z,100220.56
2023-12-04T19:46:43.496Z,100218.53
2023-12-04T19:49:11.060Z,100211.25
2023-12-04T19:51:44.387Z,100212.16
2023-12-04T19:54:11.019Z,100209.72
2023-12-04T19:56:37.530Z,100211.47
2023-12-04T19:59:04.002Z,100206.00
2023-12-04T20:01:30.545Z,100209.75
2023-12-04T20:03:58.494Z,100208.91
2023-12-04T20:06:25.247Z,100202.34
2023-12-04T20:08:52.241Z,100199.28
2023-12-04T20:11:19.471Z,100198.06
2023-12-04T20:13:45.890Z,100191.91
2023-12-04T20:16:13.717Z,100183.41
2023-12-04T20:18:40.685Z,100186.69
2023-12-04T20:21:07.962Z,100191.28
2023-12-04T20:23:35.259Z,100176.56
2023-12-04T20:26:02.431Z,100175.94
2023-12-04T20:28:29.014Z,100171.06
2023-12-04T20:30:56.008Z,100168.81
2023-12-04T20:33:23.096Z,100161.44
2023-12-04T20:35:50.632Z,100167.22
2023-12-04T20:38:18.191Z,100166.38
2023-12-04T20:40:47.265Z,100171.56
2023-12-04T20:43:14.243Z,100164.13
2023-12-04T20:45:42.627Z,100168.28
2023-12-04T20:48:10.522Z,100157.59
2023-12-04T20:50:38.001Z,100164.06
2023-12-04T20:53:04.438Z,100147.94
2023-12-04T20:55:30.873Z,100158.47
2023-12-04T20:57:57.573Z,100159.06
2023-12-04T21:00:24.804Z,100146.34
2023-12-04T21:02:55.009Z,100148.47
2023-12-04T21:05:22.911Z,100145.72
2023-12-04T21:07:49.726Z,100138.91
2023-12-04T21:10:17.989Z,100144.06
2023-12-04T21:12:44.874Z,100146.41
2023-12-04T21:15:11.657Z,100150.69
2023-12-04T21:17:39.443Z,100137.59
2023-12-04T21:20:08.103Z,100138.44
2023-12-04T21:22:35.076Z,100142.28
2023-12-04T21:25:02.765Z,100136.94
2023-12-04T21:27:31.583Z,100127.53
2023-12-04T21:29:58.985Z,100135.13
2023-12-04T21:32:25.638Z,100128.59
2023-12-04T21:34:52.358Z,100125.00
2023-12-04T21:37:19.562Z,100121.00
2023-12-04T21:39:48.475Z,100121.09
2023-12-04T21:42:15.408Z,100117.22
2023-12-04T21:44:41.915Z,100114.16
2023-12-04T21:47:08.341Z,100103.44
2023-12-04T21:49:34.853Z,100112.88
2023-12-04T21:52:01.942Z,100103.78
2023-12-04T21:54:28.439Z,100087.81
2023-12-04T21:56:55.876Z,100088.94
2023-12-04T21:59:40.926Z,100096.41
2023-12-04T22:02:07.431Z,100089.28
2023-12-04T22:04:34.106Z,100086.03
2023-12-04T22:07:00.759Z,100084.78
2023-12-04T22:09:27.805Z,100081.88
2023-12-04T22:11:54.641Z,100081.53
2023-12-04T22:14:24.783Z,100081.06
2023-12-04T22:16:51.716Z,100067.94
2023-12-04T22:19:18.286Z,100071.88
2023-12-04T22:21:44.973Z,100067.50
2023-12-04T22:24:11.509Z,100070.34
2023-12-04T22:26:37.948Z,100061.53
2023-12-04T22:29:04.629Z,100060.13
2023-12-04T22:31:31.390Z,100057.16
2023-12-04T22:33:58.024Z,100057.00
2023-12-04T22:36:24.757Z,100059.66
2023-12-04T22:38:51.362Z,100060.69
2023-12-04T22:41:17.902Z,100051.09
2023-12-04T22:43:45.043Z,100056.03
2023-12-04T22:46:12.693Z,100054.81
2023-12-04T22:48:39.427Z,100048.63
2023-12-04T22:51:06.794Z,100051.19
2023-12-04T22:53:33.213Z,100046.06
2023-12-04T22:55:59.738Z,100048.56
2023-12-04T22:58:26.354Z,100045.28
2023-12-04T23:00:54.398Z,100047.19
2023-12-04T23:03:21.722Z,100047.94
2023-12-04T23:05:49.815Z,100041.78
2023-12-04T23:08:18.524Z,100038.38
2023-12-04T23:10:45.299Z,100035.28
2023-12-04T23:13:11.771Z,100030.25
2023-12-04T23:15:39.665Z,100028.66
2023-12-04T23:18:06.387Z,100028.41
2023-12-04T23:20:32.895Z,100017.78
2023-12-04T23:22:59.374Z,100025.72
2023-12-04T23:25:26.295Z,100030.84
2023-12-04T23:27:52.980Z,100032.16
2023-12-04T23:30:19.965Z,100024.34
2023-12-04T23:32:46.587Z,100025.69
2023-12-04T23:35:13.136Z,100025.56
2023-12-04T23:37:39.557Z,100009.94
2023-12-04T23:40:06.520Z,100004.38
2023-12-04T23:42:32.967Z,100010.97
2023-12-04T23:44:59.527Z,99998.25
2023-12-04T23:47:26.182Z,99997.63
2023-12-04T23:49:52.800Z,99995.94
2023-12-04T23:52:19.344Z,99992.06
2023-12-04T23:54:46.293Z,99986.94
2023-12-04T23:57:12.798Z,99985.47
2023-12-04T23:59:39.282Z,99980.78
